Langston, OK (73050)

11:14 PM CST on February 28, 2015 (GMT -0600)
Near Antelope Creek | Change Station
CLOSE
Current Station
Personal Weather Station
Location: Guthrie, OK
Elevation: 1109 ft
Nearby Weather Stations
Active Advisory: Winter Weather Advisory

Elev 1109 ft 35.91 °N, 97.35 °W | Updated 14 seconds ago

Overcast
Overcast
25.8 °F
Feels Like 26 °F
N
0.0
Wind Variable Wind from North
Gusts 0.0 mph

Today
High -- | Low -- °F
--% Chance of Precip.
Yesterday
High -- | Low -- °F
Precip. -- in
7:00 AM 6:22 PM
Waxing Gibbous, 82% visible
Pressure 30.38 in
Visibility 3.0 miles
Clouds Overcast 500 ft
Windchill 26 °F
Dew Point 25 °F
Humidity 95%
Rainfall 0.00 in
Snow Depth Not available.
UV 0 out of 12
Pollen .80 out of 12
Air Quality Not available.
Flu Activity Not available.
METAR KGOK 010453Z AUTO 11003KT 3SM BR OVC005 M03/M04 A3034 RMK AO2 SLP288 T10331044

More Conditions Fewer Conditions

Pressure 30.38 in
Visibility 3.0 miles
Clouds Overcast 500 ft
Windchill 26 °F
Dew Point 25 °F
Humidity 95%
Rainfall 0.00 in
Snow Depth Not available.
UV 0 out of 12
Pollen .80 out of 12
Air Quality Not available.
Flu Activity Not available.
METAR KGOK 010453Z AUTO 11003KT 3SM BR OVC005 M03/M04 A3034 RMK AO2 SLP288 T10331044

More Conditions Fewer Conditions

10-Day Weather Forecast

Almanac

Astronomy

Feb. 28, 2015 Rise Set
Actual Time
Civil Twilight
Nautical Twilight
Astronomical Twilight
Moon
Length of Visible Light
Length of Day
Tomorrow will be .
, % of the Moon is Illuminated

Today's Extremes

State Highs State Lows

Community

WunderPhotos

Upload Photos

1,801,319 photos uploaded!

WunderBlogs® & News

Nearby

Air Quality

  Air Quality AQ Index Pollutant
Not available.

Snow Depth

Station Depth Elevation

Earthquake Activity

City Distance Mag. Time & Date
Minimum magnitude displayed is 2.5.

Coastal Water Temperatures

Place Temperature

Nearby Weather Stations

Winter Weather Advisory
Statement as of 10:28 PM CST on February 28, 2015

... Winter Weather Advisory remains in effect until 6 am CST
Sunday...

A Winter Weather Advisory remains in effect until 6 am CST
Sunday.

* Main impact: areas of freezing drizzle and a few very light
freezing rain showers will continue tonight... .especially near
and southeast of I-44.

* Roads and walkways: roads and walkways will be very slick and
hazardous.

Precautionary/preparedness actions...

Be careful if you have to travel. Even small amounts of ice and
snow can make roads and sidewalks slick and dangerous.